Terminal Aerodrome Forecast
Issued by NWS

Home | Current Version | Previous Version | Text Only | Print | Product List | Glossary On
Versions: 1 2 3 4 5 6 7 8 9 10 11 12 13 14 15 16 17 18 19 20 21
000
FTUS43 KDLH 241700
TAFHYR
TAF
KHYR 241729Z 2418/2518 33006KT 1SM -SN BR OVC012
      TEMPO 2418/2422 1/2SM SN FZFG OVC007
     FM242300 32012G19KT 3SM -SN BLSN OVC015
     FM250400 32007KT P6SM -SN OVC020
     FM251000 27005KT P6SM OVC018
     FM251600 24004KT P6SM BKN022 BKN080=

USA.gov is the U.S. government's official web portal to all federal, state and local government web resources and services.